Time;durP1;ratioP1;P1;durP2;ratioP2;P2;SDS_P1;SDS_P2;PMS_P1;PMS_P2;Temp;Humidity;BMP_temperature;BMP_pressure;BME280_temperature;BME280_humidity;BME280_pressure;Samples;Min_cycle;Max_cycle;Signal;HPM_P1;HPM_P2
2022/08/01 00:02:02;;;;;;;;;2.00;2.00;;;;;25.64;36.82;101360.00;5008080;28;45146;-54
2022/08/01 00:04:27;;;;;;;;;3.00;3.00;;;;;25.62;37.50;101362.78;4999058;28;47260;-54
2022/08/01 00:06:53;;;;;;;;;2.00;2.00;;;;;25.63;37.10;101360.94;5000343;28;45456;-55
2022/08/01 00:09:18;;;;;;;;;3.00;2.50;;;;;25.63;36.84;101352.88;4999900;28;46758;-55
2022/08/01 00:11:43;;;;;;;;;2.00;2.00;;;;;25.59;37.06;101357.59;4999194;28;45274;-54
2022/08/01 00:14:11;;;;;;;;;3.25;2.00;;;;;25.59;37.60;101362.97;5000365;28;47854;-54
2022/08/01 00:16:37;;;;;;;;;2.25;2.25;;;;;25.57;37.72;101356.88;4999993;28;45313;-54
2022/08/01 00:19:02;;;;;;;;;2.00;2.00;;;;;25.56;37.10;101356.94;5015665;28;45341;-55
2022/08/01 00:21:28;;;;;;;;;2.00;2.00;;;;;25.52;37.06;101348.25;5000232;28;45428;-55
2022/08/01 00:23:53;;;;;;;;;5.00;4.00;;;;;25.50;37.03;101342.09;5000197;28;48995;-55
2022/08/01 00:26:19;;;;;;;;;3.50;1.50;;;;;25.50;37.46;101349.28;5000173;28;45337;-55
2022/08/01 00:28:44;;;;;;;;;1.75;1.75;;;;;25.47;37.83;101348.56;5000302;28;45313;-55
2022/08/01 00:31:09;;;;;;;;;2.50;2.50;;;;;25.45;37.67;101352.31;4999744;28;45313;-55
2022/08/01 00:33:35;;;;;;;;;1.00;1.00;;;;;25.42;37.98;101344.44;5000077;28;45504;-55
2022/08/01 00:36:00;;;;;;;;;2.00;1.00;;;;;25.38;37.73;101354.53;5000049;28;45574;-55
2022/08/01 00:38:25;;;;;;;;;2.00;2.00;;;;;25.34;37.66;101350.31;5000149;28;45115;-55
2022/08/01 00:40:51;;;;;;;;;1.00;1.00;;;;;25.29;38.07;101345.22;4999867;28;45151;-55
2022/08/01 00:43:16;;;;;;;;;0.75;0.75;;;;;25.26;38.29;101339.22;5000098;28;45231;-54
2022/08/01 00:45:42;;;;;;;;;0.00;0.00;;;;;25.23;38.26;101337.59;4999618;28;45504;-54
2022/08/01 00:48:07;;;;;;;;;1.00;1.00;;;;;25.19;37.95;101343.28;5000194;28;45329;-55
2022/08/01 00:50:33;;;;;;;;;1.75;1.75;;;;;25.14;37.81;101333.69;5008686;28;45527;-55
2022/08/01 00:53:00;;;;;;;;;1.50;1.50;;;;;25.12;38.26;101332.06;5012067;28;46172;-57
2022/08/01 00:55:27;;;;;;;;;1.00;1.00;;;;;25.11;38.02;101336.56;4999845;28;45351;-57
2022/08/01 00:57:52;;;;;;;;;3.00;1.25;;;;;25.08;38.12;101330.53;4998742;28;45539;-57
2022/08/01 01:00:18;;;;;;;;;1.00;1.00;;;;;25.08;37.96;101330.53;5002155;28;45461;-57
2022/08/01 01:02:43;;;;;;;;;0.75;0.75;;;;;25.09;38.34;101334.94;5016956;28;46992;-57
2022/08/01 01:05:09;;;;;;;;;0.50;0.50;;;;;25.07;38.33;101328.78;5038259;28;45266;-57
2022/08/01 01:07:55;;;;;;;;;0.75;0.75;;;;;25.07;38.65;101332.38;5023407;28;45363;-57
2022/08/01 01:10:32;;;;;;;;;1.75;1.75;;;;;25.07;38.52;101335.06;5023088;28;45269;-57
2022/08/01 01:12:57;;;;;;;;;1.50;1.00;;;;;25.07;38.23;101326.97;5021487;28;47095;-57
2022/08/01 01:15:36;;;;;;;;;0.00;0.00;;;;;25.06;38.65;101332.47;5022888;28;45503;-57
2022/08/01 01:18:14;;;;;;;;;2.50;1.00;;;;;25.06;38.69;101330.63;5038274;28;45473;-57
2022/08/01 01:20:44;;;;;;;;;1.75;1.00;;;;;25.06;38.67;101329.78;5022844;28;45391;-57
2022/08/01 01:23:21;;;;;;;;;2.00;1.00;;;;;25.05;38.39;101328.06;5022866;28;45398;-57
2022/08/01 01:26:29;;;;;;;;;0.00;0.00;;;;;25.05;38.47;101325.38;5022683;28;45423;-57
2022/08/01 01:29:05;;;;;;;;;0.50;0.00;;;;;25.02;38.46;101329.13;5022938;28;45329;-57
2022/08/01 01:31:49;;;;;;;;;2.50;2.50;;;;;25.02;38.82;101325.56;5022131;28;45337;-57
2022/08/01 01:34:18;;;;;;;;;1.00;0.50;;;;;25.01;38.36;101326.53;5022536;28;45335;-57
2022/08/01 01:36:44;;;;;;;;;1.00;1.00;;;;;25.01;38.66;101329.22;5022686;28;45349;-57
2022/08/01 01:39:11;;;;;;;;;1.00;1.00;;;;;24.99;38.40;101332.88;5022674;28;45207;-57
2022/08/01 01:41:38;;;;;;;;;3.00;1.00;;;;;24.99;38.66;101330.19;5022424;28;45479;-57
2022/08/01 01:44:05;;;;;;;;;1.00;1.00;;;;;24.98;38.85;101327.56;5022228;28;46068;-57
2022/08/01 01:46:31;;;;;;;;;0.25;0.25;;;;;24.98;38.90;101331.16;5022284;28;45201;-57
2022/08/01 01:48:58;;;;;;;;;1.00;1.00;;;;;24.97;38.72;101323.19;5022482;28;45240;-57
2022/08/01 01:51:27;;;;;;;;;0.00;0.00;;;;;24.96;38.56;101322.31;5021072;28;45659;-57
2022/08/01 01:53:54;;;;;;;;;0.00;0.00;;;;;24.96;38.54;101322.31;5007314;28;46123;-57
2022/08/01 01:56:21;;;;;;;;;0.25;0.25;;;;;24.92;38.91;101314.56;5002556;28;45320;-56
2022/08/01 01:58:54;;;;;;;;;2.00;1.00;;;;;24.95;38.75;101319.72;5002409;28;45289;-57
2022/08/01 02:01:23;;;;;;;;;1.00;1.00;;;;;24.93;38.80;101325.22;5020881;28;46007;-56
2022/08/01 02:03:50;;;;;;;;;0.50;0.50;;;;;24.90;38.70;101306.59;5020079;28;46953;-57
2022/08/01 02:06:16;;;;;;;;;0.00;0.00;;;;;24.90;38.74;101311.09;5002459;28;45457;-57
2022/08/01 02:08:43;;;;;;;;;1.00;1.00;;;;;24.91;38.92;101315.53;5002238;28;45242;-57
2022/08/01 02:11:18;;;;;;;;;1.75;1.00;;;;;24.92;38.87;101319.94;5001007;28;45246;-57
2022/08/01 02:13:47;;;;;;;;;2.25;1.00;;;;;24.90;38.81;101314.66;5001985;28;45341;-57
2022/08/01 02:16:13;;;;;;;;;0.50;0.50;;;;;24.90;38.83;101320.03;5001855;28;45322;-57
2022/08/01 02:18:40;;;;;;;;;0.00;0.00;;;;;24.90;38.92;101317.34;5002186;28;45428;-57
2022/08/01 02:21:11;;;;;;;;;1.00;1.00;;;;;24.87;38.77;101314.88;5002050;28;45456;-57
2022/08/01 02:23:38;;;;;;;;;0.00;0.00;;;;;24.88;38.84;101315.72;5001737;28;46370;-57
2022/08/01 02:26:10;;;;;;;;;0.75;0.75;;;;;24.87;39.25;101314.88;5001991;28;45515;-57
2022/08/01 02:28:45;;;;;;;;;1.00;1.00;;;;;24.88;39.03;101319.28;5001633;28;45245;-57
2022/08/01 02:31:16;;;;;;;;;2.50;1.75;;;;;24.87;38.99;101317.56;5001537;28;45361;-57
2022/08/01 02:33:45;;;;;;;;;1.00;1.00;;;;;24.86;38.98;101320.34;5001821;28;46119;-57
2022/08/01 02:36:12;;;;;;;;;0.75;0.75;;;;;24.82;39.11;101312.47;5001807;28;45161;-57
2022/08/01 02:38:43;;;;;;;;;1.75;1.75;;;;;24.85;39.05;101321.31;5001956;28;45317;-57
2022/08/01 02:41:13;;;;;;;;;2.00;1.00;;;;;24.81;39.15;101310.75;5001816;28;45321;-56
2022/08/01 02:43:48;;;;;;;;;0.75;0.75;;;;;24.80;39.27;101314.41;5001631;28;45286;-55
2022/08/01 02:46:24;;;;;;;;;0.00;0.00;;;;;24.79;39.24;101315.38;5016753;28;45208;-55
2022/08/01 02:48:53;;;;;;;;;1.75;1.00;;;;;24.78;39.25;101312.75;5001721;28;45389;-55
2022/08/01 02:51:21;;;;;;;;;0.00;0.00;;;;;24.74;39.17;101312.13;5016984;28;45298;-54
2022/08/01 02:53:49;;;;;;;;;1.00;1.00;;;;;24.73;39.17;101321.16;5006953;28;46478;-56
2022/08/01 02:56:17;;;;;;;;;0.50;0.50;;;;;24.71;39.35;101312.31;5001600;28;45245;-54
2022/08/01 02:58:45;;;;;;;;;2.00;2.00;;;;;24.68;39.55;101315.22;5000285;28;45330;-55
2022/08/01 03:01:13;;;;;;;;;0.50;0.50;;;;;24.66;39.24;101312.59;5003984;28;45357;-55
2022/08/01 03:03:38;;;;;;;;;0.75;0.75;;;;;24.65;39.57;101316.28;5005509;28;45244;-55
2022/08/01 03:06:05;;;;;;;;;0.50;0.50;;;;;24.64;39.67;101316.31;5001525;28;45362;-55
2022/08/01 03:08:32;;;;;;;;;1.00;1.00;;;;;24.58;39.84;101303.28;5000097;28;45342;-55
2022/08/01 03:11:01;;;;;;;;;1.00;1.00;;;;;24.56;39.74;101305.22;5001266;28;45466;-53
2022/08/01 03:13:28;;;;;;;;;3.00;3.00;;;;;24.51;39.84;101305.50;4999999;28;46223;-55
2022/08/01 03:15:55;;;;;;;;;2.75;1.75;;;;;24.51;39.58;101308.19;5000888;28;45357;-55
2022/08/01 03:18:24;;;;;;;;;1.00;1.00;;;;;24.49;39.91;101310.13;5000140;28;45329;-55
2022/08/01 03:20:51;;;;;;;;;1.00;0.75;;;;;24.47;39.82;101306.66;5001159;28;45316;-54
2022/08/01 03:23:19;;;;;;;;;1.00;0.00;;;;;24.47;40.01;101315.59;5000618;28;46581;-53
2022/08/01 03:25:46;;;;;;;;;1.00;1.00;;;;;24.48;40.22;101311.09;5000979;28;45311;-54
2022/08/01 03:28:13;;;;;;;;;1.00;1.00;;;;;24.49;39.95;101310.13;5001095;28;45281;-55
2022/08/01 03:30:41;;;;;;;;;1.00;1.00;;;;;24.50;40.21;101312.72;4999361;28;45421;-55
2022/08/01 03:33:07;;;;;;;;;1.75;1.75;;;;;24.53;40.27;101311.66;5000813;28;45324;-55
2022/08/01 03:36:03;;;;;;;;;0.50;0.50;;;;;24.55;40.23;101312.41;5000960;28;45284;-54
2022/08/01 03:38:33;;;;;;;;;2.50;1.00;;;;;24.56;40.27;101316.81;4984382;28;45590;-55
2022/08/01 03:41:08;;;;;;;;;1.00;1.00;;;;;24.59;40.24;101318.44;5000700;28;45377;-55
2022/08/01 03:43:43;;;;;;;;;1.00;1.00;;;;;24.60;40.36;101325.53;5000739;28;45487;-55
2022/08/01 03:46:17;;;;;;;;;1.50;1.50;;;;;24.60;40.17;101323.75;4999135;28;45397;-54
2022/08/01 03:48:48;;;;;;;;;1.00;1.00;;;;;24.59;40.30;101322.00;5000823;28;45388;-55
2022/08/01 03:51:14;;;;;;;;;1.00;1.00;;;;;24.60;40.41;101318.38;5015392;28;45307;-55
2022/08/01 03:53:42;;;;;;;;;1.50;1.50;;;;;24.60;40.63;101321.06;5007151;28;45350;-54
2022/08/01 03:56:09;;;;;;;;;2.75;1.25;;;;;24.60;40.41;101314.78;5000743;28;45404;-55
2022/08/01 03:58:38;;;;;;;;;2.50;2.00;;;;;24.61;40.23;101322.75;5000653;28;45266;-55
2022/08/01 04:01:05;;;;;;;;;0.00;0.00;;;;;24.59;40.48;101321.13;5002158;28;45551;-55
2022/08/01 04:03:32;;;;;;;;;1.25;1.00;;;;;24.56;40.64;101316.81;5006016;28;45462;-55
2022/08/01 04:05:58;;;;;;;;;1.00;1.00;;;;;24.56;40.20;101324.03;5000406;28;45456;-57
2022/08/01 04:08:34;;;;;;;;;0.00;0.00;;;;;24.54;40.61;101321.44;5000471;28;45298;-57
2022/08/01 04:10:59;;;;;;;;;0.50;0.50;;;;;24.53;40.56;101324.19;5000542;28;45272;-60
2022/08/01 04:13:24;;;;;;;;;1.00;1.00;;;;;24.52;40.63;101322.50;5000243;28;46313;-56
2022/08/01 04:15:50;;;;;;;;;0.25;0.25;;;;;24.50;40.83;101315.41;5000158;28;45325;-57
2022/08/01 04:18:15;;;;;;;;;1.00;1.00;;;;;24.43;40.65;101302.47;5000652;28;45290;-57
2022/08/01 04:20:41;;;;;;;;;1.50;1.50;;;;;24.52;40.55;101315.28;5000220;28;45245;-57
2022/08/01 04:23:07;;;;;;;;;4.50;4.25;;;;;24.52;40.61;101311.75;5000194;28;46936;-57
2022/08/01 04:25:36;;;;;;;;;2.75;2.00;;;;;24.51;40.82;101316.25;5000170;28;45289;-56
2022/08/01 04:28:07;;;;;;;;;2.25;2.00;;;;;24.50;40.10;101317.22;5000196;28;45439;-57
2022/08/01 04:30:35;;;;;;;;;3.50;1.75;;;;;24.46;40.75;101302.25;4999904;28;45393;-56
2022/08/01 04:33:05;;;;;;;;;1.50;1.50;;;;;24.47;40.89;101309.34;4999512;28;45351;-57
2022/08/01 04:35:32;;;;;;;;;1.00;1.00;;;;;24.43;41.04;101297.09;4999536;28;45391;-55
2022/08/01 04:37:59;;;;;;;;;1.00;1.00;;;;;24.42;40.67;101309.66;5015244;28;45175;-55
2022/08/01 04:40:26;;;;;;;;;0.00;0.00;;;;;24.39;41.25;101307.16;4999717;28;45174;-56
2022/08/01 04:42:51;;;;;;;;;1.00;1.00;;;;;24.40;41.10;101294.59;4999777;28;47057;-56
2022/08/01 04:45:17;;;;;;;;;0.75;0.75;;;;;24.40;41.32;101299.97;4999947;28;45272;-56
2022/08/01 04:47:42;;;;;;;;;2.50;2.50;;;;;24.39;41.26;101296.41;4999773;28;45428;-56
2022/08/01 04:50:09;;;;;;;;;1.00;1.00;;;;;24.36;41.28;101301.13;5005947;28;45572;-55
2022/08/01 04:52:36;;;;;;;;;4.75;4.75;;;;;24.37;41.32;101308.22;5014883;28;46241;-56
2022/08/01 04:55:03;;;;;;;;;4.00;4.00;;;;;24.33;41.24;101307.56;5000405;28;45321;-55
2022/08/01 04:57:29;;;;;;;;;2.25;2.00;;;;;24.30;41.37;101307.72;4999862;28;45386;-56
2022/08/01 04:59:56;;;;;;;;;1.00;1.00;;;;;24.26;41.27;101301.69;5015097;28;45770;-55
2022/08/01 05:02:22;;;;;;;;;1.00;0.25;;;;;24.29;41.39;101306.03;5006478;28;46162;-57
2022/08/01 05:04:48;;;;;;;;;1.00;1.00;;;;;24.27;41.42;101311.47;4999607;28;45362;-57
2022/08/01 05:07:13;;;;;;;;;1.25;1.25;;;;;24.25;41.28;101316.09;4999728;28;45376;-56
2022/08/01 05:09:42;;;;;;;;;1.00;1.00;;;;;24.26;41.36;101314.25;4999740;28;45309;-56
2022/08/01 05:12:09;;;;;;;;;3.25;2.50;;;;;24.26;41.70;101320.47;4999611;28;46265;-56
2022/08/01 05:14:35;;;;;;;;;1.25;1.25;;;;;24.26;41.91;101316.94;4999691;28;45178;-55
2022/08/01 05:17:03;;;;;;;;;1.00;1.00;;;;;24.24;41.52;101325.09;4999284;28;45428;-56
2022/08/01 05:19:39;;;;;;;;;3.75;3.00;;;;;24.21;41.69;101322.59;4999502;28;45444;-57
2022/08/01 05:22:06;;;;;;;;;2.00;1.00;;;;;24.23;42.05;101325.22;5014574;28;46645;-56
2022/08/01 05:24:33;;;;;;;;;1.00;1.00;;;;;24.19;41.85;101324.53;4999374;28;45202;-56
2022/08/01 05:26:59;;;;;;;;;0.00;0.00;;;;;24.17;42.20;101329.97;4999757;28;45362;-57
2022/08/01 05:29:25;;;;;;;;;1.00;1.00;;;;;24.16;42.07;101338.13;5013939;28;45382;-56
2022/08/01 05:31:52;;;;;;;;;0.00;0.00;;;;;24.15;42.35;101339.09;4999174;28;45406;-56
2022/08/01 05:34:17;;;;;;;;;0.00;0.00;;;;;24.11;41.96;101332.19;4999371;28;45336;-57
2022/08/01 05:36:43;;;;;;;;;0.00;0.00;;;;;24.11;42.59;101335.75;4999669;28;45480;-56
2022/08/01 05:39:08;;;;;;;;;1.25;1.00;;;;;24.10;42.76;101335.84;4999466;28;45250;-56
2022/08/01 05:41:36;;;;;;;;;2.00;2.00;;;;;24.08;42.75;101335.94;4999246;28;45352;-55
2022/08/01 05:44:02;;;;;;;;;1.25;1.25;;;;;24.06;42.71;101332.47;4999142;28;45222;-56
2022/08/01 05:46:27;;;;;;;;;2.00;1.00;;;;;24.02;43.02;101329.13;5001683;28;45288;-56
2022/08/01 05:48:52;;;;;;;;;2.25;2.25;;;;;24.04;42.95;101341.56;5002411;28;45527;-56
2022/08/01 05:51:17;;;;;;;;;2.75;1.25;;;;;24.01;43.02;101327.41;5017797;28;45297;-55
2022/08/01 05:53:43;;;;;;;;;1.00;1.00;;;;;24.02;42.96;101333.63;5008750;28;45180;-54
2022/08/01 05:56:09;;;;;;;;;1.75;1.75;;;;;24.01;43.20;101338.16;5002799;28;45495;-55
2022/08/01 05:58:34;;;;;;;;;1.00;1.00;;;;;24.02;43.13;101341.69;5002454;28;45422;-54
2022/08/01 06:01:00;;;;;;;;;7.50;6.25;;;;;24.00;42.93;101344.47;5003005;28;45628;-55
2022/08/01 06:03:25;;;;;;;;;1.00;1.00;;;;;24.05;42.97;101351.34;5008487;28;45158;-55
2022/08/01 06:05:53;;;;;;;;;4.00;2.00;;;;;24.02;43.51;101345.25;5002516;28;45398;-57
2022/08/01 06:08:18;;;;;;;;;1.75;1.00;;;;;24.05;43.04;101349.56;5000577;28;45520;-55
2022/08/01 06:10:44;;;;;;;;;0.50;0.50;;;;;24.05;42.78;101348.69;5002032;28;46291;-55
2022/08/01 06:13:09;;;;;;;;;2.00;2.00;;;;;24.06;42.78;101350.41;5002213;28;45326;-55
2022/08/01 06:15:34;;;;;;;;;0.00;0.00;;;;;24.07;42.95;101355.69;5002213;28;45508;-57
2022/08/01 06:18:00;;;;;;;;;1.75;1.75;;;;;24.05;42.79;101346.00;5002069;28;45234;-55
2022/08/01 06:20:25;;;;;;;;;1.00;1.00;;;;;24.05;43.26;101354.94;5002133;28;45350;-54
2022/08/01 06:22:51;;;;;;;;;2.50;1.50;;;;;24.04;43.13;101347.81;5017388;28;45857;-55
2022/08/01 06:25:20;;;;;;;;;2.50;1.50;;;;;24.05;43.27;101337.94;5001751;28;45258;-55
2022/08/01 06:27:45;;;;;;;;;1.25;1.00;;;;;24.04;42.73;101344.25;5000711;28;45717;-54
2022/08/01 06:30:11;;;;;;;;;0.50;0.50;;;;;24.05;43.11;101351.34;5001045;28;45397;-55
2022/08/01 06:32:36;;;;;;;;;1.00;1.00;;;;;24.04;43.11;101345.13;5001395;28;45389;-54
2022/08/01 06:35:02;;;;;;;;;3.00;2.00;;;;;24.02;42.99;101350.59;5000849;28;45278;-55
2022/08/01 06:37:32;;;;;;;;;2.00;2.00;;;;;24.03;43.14;101356.84;5001732;28;45550;-55
2022/08/01 06:40:04;;;;;;;;;2.00;2.00;;;;;24.05;43.54;101356.72;5001743;28;46890;-55
2022/08/01 06:42:35;;;;;;;;;1.00;1.00;;;;;24.03;43.50;101359.50;5001425;28;45399;-55
2022/08/01 06:45:09;;;;;;;;;2.00;2.00;;;;;24.04;43.09;101344.25;5001661;28;45357;-56
2022/08/01 06:47:34;;;;;;;;;3.00;1.50;;;;;24.02;43.20;101347.03;5001189;28;45252;-55
2022/08/01 06:50:00;;;;;;;;;0.50;0.50;;;;;24.04;43.46;101355.88;5006377;28;46363;-55
2022/08/01 06:52:25;;;;;;;;;2.00;2.00;;;;;24.05;43.59;101356.72;5017515;28;45173;-55
2022/08/01 06:54:51;;;;;;;;;2.75;2.00;;;;;24.02;43.39;101353.28;5001772;28;45245;-56
2022/08/01 06:57:17;;;;;;;;;3.50;3.00;;;;;24.05;43.70;101346.00;5000713;28;45508;-56
2022/08/01 06:59:42;;;;;;;;;1.00;1.00;;;;;24.06;43.66;101350.41;5001345;28;45451;-57
2022/08/01 07:02:08;;;;;;;;;2.00;2.00;;;;;24.07;43.63;101350.31;5008294;28;45310;-55
2022/08/01 07:04:34;;;;;;;;;38.75;34.50;;;;;24.12;43.59;101348.19;5001286;28;45330;-56
2022/08/01 07:07:00;;;;;;;;;29.50;25.75;;;;;24.14;43.51;101354.34;5001125;28;45535;-55
2022/08/01 07:09:26;;;;;;;;;19.00;19.00;;;;;24.15;43.45;101353.41;4999643;28;48255;-56
2022/08/01 07:11:53;;;;;;;;;47.50;39.00;;;;;24.18;43.32;101357.72;5001044;28;45242;-56
2022/08/01 07:14:20;;;;;;;;;2.00;2.00;;;;;24.21;43.49;101352.13;5001496;28;45175;-56
2022/08/01 07:16:45;;;;;;;;;2.00;1.25;;;;;24.25;43.53;101352.81;5015486;28;45723;-55
2022/08/01 07:19:12;;;;;;;;;3.00;1.00;;;;;24.25;43.73;101356.38;5000697;28;45715;-55
2022/08/01 07:21:38;;;;;;;;;1.50;1.50;;;;;24.29;43.59;101359.75;5001084;28;45261;-55
2022/08/01 07:24:04;;;;;;;;;2.00;2.00;;;;;24.33;43.52;101366.63;5001166;28;45258;-55
2022/08/01 07:26:29;;;;;;;;;3.50;2.25;;;;;24.32;43.66;101355.00;5001004;28;45399;-53
2022/08/01 07:28:54;;;;;;;;;3.50;2.50;;;;;24.30;43.61;101358.75;5001050;28;45293;-55
2022/08/01 07:31:20;;;;;;;;;1.00;1.00;;;;;24.34;43.57;101358.47;5015901;28;45693;-56
2022/08/01 07:33:45;;;;;;;;;3.00;3.00;;;;;24.32;43.64;101357.69;5001462;28;45287;-56
2022/08/01 07:36:11;;;;;;;;;1.00;1.00;;;;;24.37;43.84;101353.88;5000956;28;45299;-54
2022/08/01 07:38:36;;;;;;;;;2.75;2.00;;;;;24.28;43.31;101350.81;5001169;28;46489;-54
2022/08/01 07:41:02;;;;;;;;;3.25;3.25;;;;;24.38;43.61;101366.31;5000762;28;45163;-55
2022/08/01 07:43:28;;;;;;;;;1.25;0.50;;;;;24.42;43.47;101367.88;5000998;28;45263;-55
2022/08/01 07:45:53;;;;;;;;;2.75;2.75;;;;;24.38;43.36;101345.72;5000372;28;45492;-55
2022/08/01 07:48:21;;;;;;;;;3.25;1.25;;;;;24.46;43.30;101369.41;5000801;28;46389;-55
2022/08/01 07:50:46;;;;;;;;;2.25;2.25;;;;;24.48;43.47;101371.03;5011673;28;45305;-55
2022/08/01 07:53:11;;;;;;;;;2.00;2.00;;;;;24.48;43.61;101370.19;5011634;28;45332;-56
2022/08/01 07:55:37;;;;;;;;;1.00;1.00;;;;;24.50;43.62;101376.31;5000589;28;45312;-55
2022/08/01 07:58:02;;;;;;;;;1.75;1.50;;;;;24.49;43.70;101375.44;5000738;28;45473;-56
2022/08/01 08:00:28;;;;;;;;;2.00;1.75;;;;;24.52;43.42;101386.97;5000252;28;45301;-55
2022/08/01 08:02:53;;;;;;;;;1.25;1.00;;;;;24.53;43.32;101389.56;5007415;28;45389;-55
2022/08/01 08:05:19;;;;;;;;;3.00;2.25;;;;;24.55;43.36;101386.75;5000370;28;45253;-55
2022/08/01 08:07:44;;;;;;;;;3.00;2.00;;;;;24.54;43.41;101390.41;5000313;28;45316;-54
2022/08/01 08:10:10;;;;;;;;;1.00;1.00;;;;;24.54;43.59;101395.78;4999430;28;45436;-55
2022/08/01 08:12:35;;;;;;;;;1.75;1.75;;;;;24.54;43.72;101391.28;5000644;28;45386;-55
2022/08/01 08:15:01;;;;;;;;;2.00;2.00;;;;;24.53;43.89;101394.94;5000324;28;45242;-54
2022/08/01 08:17:26;;;;;;;;;1.50;1.50;;;;;24.56;43.40;101393.88;4999965;28;45170;-55
2022/08/01 08:19:51;;;;;;;;;2.50;2.50;;;;;24.57;43.38;101390.22;5001037;28;45234;-55
2022/08/01 08:22:17;;;;;;;;;2.00;2.00;;;;;24.59;43.45;101389.16;5000493;28;45381;-54
2022/08/01 08:24:43;;;;;;;;;1.25;1.00;;;;;24.61;43.27;101387.22;5000162;28;45210;-55
2022/08/01 08:27:08;;;;;;;;;0.75;0.75;;;;;24.66;43.57;101390.50;5000414;28;45219;-55
2022/08/01 08:29:34;;;;;;;;;2.25;1.00;;;;;24.65;43.67;101388.81;5000090;28;45222;-55
2022/08/01 08:32:00;;;;;;;;;2.00;2.00;;;;;24.66;43.68;101387.81;5015239;28;45267;-53
2022/08/01 08:34:27;;;;;;;;;2.00;2.00;;;;;24.75;43.47;101382.84;5000245;28;45452;-54
2022/08/01 08:36:54;;;;;;;;;2.00;1.75;;;;;24.75;43.54;101382.84;4999975;28;46305;-56
2022/08/01 08:39:20;;;;;;;;;0.50;0.50;;;;;24.82;43.21;101387.72;4999650;28;45401;-55
2022/08/01 08:41:45;;;;;;;;;2.00;2.00;;;;;24.90;43.19;101392.59;5000075;28;45527;-54
2022/08/01 08:44:11;;;;;;;;;3.00;3.00;;;;;24.96;43.06;101392.19;4999507;28;45243;-55
2022/08/01 08:46:53;;;;;;;;;1.00;1.00;;;;;24.99;42.94;101386.63;4998328;28;46002;-55
2022/08/01 08:49:24;;;;;;;;;1.75;1.75;;;;;25.06;43.28;101383.56;4999986;28;45489;-55
2022/08/01 08:51:52;;;;;;;;;1.25;1.25;;;;;25.03;43.18;101370.28;5011492;28;45243;-55
2022/08/01 08:54:21;;;;;;;;;1.25;1.25;;;;;25.07;42.84;101371.81;5001127;28;45397;-57
2022/08/01 08:56:47;;;;;;;;;0.00;0.00;;;;;25.12;42.44;101369.72;4999694;28;46053;-55
2022/08/01 08:59:13;;;;;;;;;0.25;0.25;;;;;25.15;42.64;101364.13;4999794;28;45235;-55
2022/08/01 09:01:39;;;;;;;;;1.75;1.75;;;;;25.22;42.30;101372.63;5006252;28;45345;-56
2022/08/01 09:04:05;;;;;;;;;1.00;0.75;;;;;25.25;42.80;101357.16;5000536;28;45258;-55
2022/08/01 09:06:32;;;;;;;;;2.25;1.00;;;;;25.33;42.20;101358.47;5000250;28;46108;-56
2022/08/01 09:08:59;;;;;;;;;1.25;1.25;;;;;25.39;42.64;101361.63;4999670;28;45321;-55
2022/08/01 09:11:24;;;;;;;;;3.00;2.00;;;;;25.45;42.57;101363.06;4998598;28;45401;-55
2022/08/01 09:14:10;;;;;;;;;2.00;2.00;;;;;25.49;41.88;101367.28;4999445;28;45305;-55
2022/08/01 09:16:39;;;;;;;;;1.25;1.25;;;;;25.56;42.39;101373.97;4998772;28;45227;-56
2022/08/01 09:19:15;;;;;;;;;1.00;1.00;;;;;25.62;41.86;101370.84;4999756;28;45471;-56
2022/08/01 09:22:03;;;;;;;;;2.00;1.00;;;;;25.71;41.79;101366.69;5001258;28;45371;-55
2022/08/01 09:24:29;;;;;;;;;2.00;2.00;;;;;25.73;42.28;101370.09;5002818;28;45345;-56
2022/08/01 09:26:55;;;;;;;;;0.50;0.50;;;;;25.76;41.80;101378.00;5001424;28;46248;-56
2022/08/01 09:29:29;;;;;;;;;3.00;2.25;;;;;25.82;41.95;101379.38;5002826;28;45249;-56
2022/08/01 09:31:56;;;;;;;;;2.75;2.75;;;;;25.85;41.92;101384.56;5002507;28;45395;-56
2022/08/01 09:34:26;;;;;;;;;1.50;1.50;;;;;25.87;41.57;101389.84;5002693;28;45405;-56
2022/08/01 09:36:59;;;;;;;;;1.25;1.25;;;;;25.91;41.75;101394.03;5002804;28;45403;-55
2022/08/01 09:39:27;;;;;;;;;2.00;2.00;;;;;25.91;41.57;101380.56;5002692;28;45320;-56
2022/08/01 09:41:55;;;;;;;;;1.50;1.50;;;;;25.98;41.83;101383.72;5002717;28;45354;-56
2022/08/01 09:44:39;;;;;;;;;2.75;1.25;;;;;26.02;41.05;101378.00;5002403;28;45452;-55
2022/08/01 09:47:05;;;;;;;;;1.75;1.75;;;;;26.05;41.21;101377.84;5002119;28;45419;-56
2022/08/01 09:49:38;;;;;;;;;3.75;2.00;;;;;26.09;40.83;101386.56;5003149;28;45266;-56
2022/08/01 09:52:15;;;;;;;;;1.00;1.00;;;;;26.13;41.03;101388.06;5022497;28;45547;-56
2022/08/01 09:54:43;;;;;;;;;1.75;1.75;;;;;26.15;40.60;101387.94;5014043;28;45182;-56
2022/08/01 09:57:17;;;;;;;;;1.50;1.50;;;;;26.17;40.63;101386.03;5000942;28;47175;-55
2022/08/01 09:59:45;;;;;;;;;3.25;1.75;;;;;26.17;41.25;101384.19;5002264;28;45314;-57
2022/08/01 10:02:26;;;;;;;;;4.00;2.75;;;;;26.18;41.05;101391.28;5009427;28;45341;-56
2022/08/01 10:04:52;;;;;;;;;2.00;2.00;;;;;26.16;40.78;101398.59;5002358;28;46053;-56
2022/08/01 10:07:18;;;;;;;;;2.00;2.00;;;;;26.13;40.79;101395.28;5002307;28;45265;-56
2022/08/01 10:09:44;;;;;;;;;2.00;1.75;;;;;26.13;40.44;101379.13;5002362;28;45178;-55
2022/08/01 10:12:11;;;;;;;;;2.00;2.00;;;;;26.12;41.22;101378.25;5002324;28;45432;-55
2022/08/01 10:14:38;;;;;;;;;1.50;1.50;;;;;26.14;40.65;101384.41;5002162;28;45267;-55
2022/08/01 10:17:07;;;;;;;;;3.00;2.00;;;;;26.21;40.40;101399.19;5017119;28;47924;-55
2022/08/01 10:19:35;;;;;;;;;3.00;1.75;;;;;26.28;40.71;101395.06;5002057;28;45396;-54
2022/08/01 10:22:01;;;;;;;;;3.00;2.75;;;;;26.36;41.13;101399.91;5002147;28;45227;-55
2022/08/01 10:24:29;;;;;;;;;2.00;2.00;;;;;26.44;41.04;101402.91;5001874;28;45258;-56
2022/08/01 10:27:03;;;;;;;;;3.00;2.00;;;;;26.51;40.49;101391.72;5024011;28;47096;-55
2022/08/01 10:29:35;;;;;;;;;2.50;2.50;;;;;26.60;40.56;101396.44;5021610;28;45397;-55
2022/08/01 10:32:01;;;;;;;;;2.25;2.25;;;;;26.67;40.35;101392.31;5020411;28;45590;-56
2022/08/01 10:34:27;;;;;;;;;2.50;2.25;;;;;26.73;40.72;101389.22;5020435;28;45522;-56
2022/08/01 10:36:53;;;;;;;;;2.00;2.00;;;;;26.83;40.58;101391.22;5021866;28;46101;-55
2022/08/01 10:39:19;;;;;;;;;5.25;4.00;;;;;26.90;40.04;101395.22;5021503;28;45440;-55
2022/08/01 10:41:45;;;;;;;;;2.00;2.00;;;;;26.98;39.63;101391.94;5021887;28;45395;-56
2022/08/01 10:44:10;;;;;;;;;6.00;4.00;;;;;27.04;39.83;101394.19;5020992;28;55753;-56
2022/08/01 10:46:39;;;;;;;;;2.00;2.00;;;;;27.12;40.24;101378.31;5021340;28;45371;-57
2022/08/01 10:49:10;;;;;;;;;2.00;2.00;;;;;27.20;40.34;101370.50;5021437;28;45223;-55
2022/08/01 10:51:38;;;;;;;;;3.75;3.75;;;;;27.41;40.30;101378.84;5020898;28;45278;-57
2022/08/01 10:54:09;;;;;;;;;3.50;3.50;;;;;27.68;40.33;101376.84;5004677;28;45468;-57
2022/08/01 10:56:51;;;;;;;;;2.00;2.00;;;;;27.97;40.54;101381.84;5000968;28;45414;-55
2022/08/01 10:59:24;;;;;;;;;4.25;3.00;;;;;28.19;40.19;101387.31;4999669;28;45463;-57
2022/08/01 11:02:04;;;;;;;;;4.00;2.75;;;;;28.41;39.66;101391.00;5008638;28;45451;-56
2022/08/01 11:04:33;;;;;;;;;5.00;3.50;;;;;28.59;39.64;101383.25;5001367;28;45301;-57
2022/08/01 11:07:05;;;;;;;;;2.00;2.00;;;;;28.76;39.48;101378.34;5001338;28;45308;-56
2022/08/01 11:09:45;;;;;;;;;3.00;3.00;;;;;28.89;39.19;101379.06;5001357;28;45467;-57
2022/08/01 11:12:14;;;;;;;;;3.75;3.75;;;;;28.98;39.00;101383.72;5001338;28;45576;-57
2022/08/01 11:14:57;;;;;;;;;3.25;3.25;;;;;29.03;38.72;101380.63;5001452;28;45341;-56
2022/08/01 11:17:50;;;;;;;;;3.50;3.00;;;;;29.05;38.41;101372.41;5000963;28;45468;-57
2022/08/01 11:20:24;;;;;;;;;3.50;3.50;;;;;29.05;38.44;101385.91;4997035;28;45309;-57
2022/08/01 11:22:58;;;;;;;;;3.00;3.00;;;;;29.08;38.12;101382.94;5001098;28;45225;-57
2022/08/01 11:25:24;;;;;;;;;5.00;4.00;;;;;29.12;37.78;101385.28;5006920;28;46048;-57
2022/08/01 11:28:16;;;;;;;;;7.00;5.25;;;;;29.22;38.20;101384.50;5020666;28;45345;-57
2022/08/01 11:30:46;;;;;;;;;2.50;2.50;;;;;29.22;38.22;101368.25;5020579;28;45305;-56